Time;durP1;ratioP1;P1;durP2;ratioP2;P2;SDS_P1;SDS_P2;PMS_P1;PMS_P2;Temp;Humidity;BMP_temperature;BMP_pressure;BME280_temperature;BME280_humidity;BME280_pressure;Samples;Min_cycle;Max_cycle;Signal;HPM_P1;HPM_P2
2023/12/20 00:03:32;;;;;;;1.27;1.27;;;;;;;;;;10346283;28;20227;-75
2023/12/20 00:08:33;;;;;;;2.08;2.00;;;;;;;;;;10329691;28;20400;-77
2023/12/20 00:13:34;;;;;;;1.08;1.08;;;;;;;;;;10344674;28;20865;-76
2023/12/20 00:18:35;;;;;;;1.95;1.60;;;;;;;;;;10347726;28;20205;-78
2023/12/20 00:23:36;;;;;;;1.70;1.63;;;;;;;;;;10347292;28;20200;-79
2023/12/20 00:28:37;;;;;;;1.42;1.33;;;;;;;;;;10343171;28;20789;-78
2023/12/20 00:33:39;;;;;;;1.35;1.30;;;;;;;;;;10356251;28;20254;-77
2023/12/20 00:38:40;;;;;;;1.10;1.10;;;;;;;;;;10328040;28;20216;-77
2023/12/20 00:43:41;;;;;;;1.80;1.80;;;;;;;;;;10346370;28;20260;-77
2023/12/20 00:48:45;;;;;;;1.42;1.42;;;;;;;;;;10343015;28;20216;-77
2023/12/20 00:53:49;;;;;;;1.50;1.45;;;;;;;;;;10360813;28;21570;-76
2023/12/20 00:58:50;;;;;;;1.33;1.30;;;;;;;;;;10366264;28;20214;-77
2023/12/20 01:03:51;;;;;;;1.65;1.60;;;;;;;;;;10347381;28;20258;-77
2023/12/20 01:08:52;;;;;;;1.63;1.60;;;;;;;;;;10347475;28;20741;-78
2023/12/20 01:13:53;;;;;;;1.65;1.55;;;;;;;;;;10343187;28;20207;-77
2023/12/20 01:18:54;;;;;;;1.70;1.67;;;;;;;;;;10345853;28;20208;-77
2023/12/20 01:23:55;;;;;;;1.58;1.48;;;;;;;;;;10348436;28;20219;-77
2023/12/20 01:28:56;;;;;;;2.25;2.10;;;;;;;;;;10348001;28;20301;-77
2023/12/20 01:33:57;;;;;;;2.47;2.33;;;;;;;;;;10349626;28;20220;-76
2023/12/20 01:38:58;;;;;;;1.98;1.90;;;;;;;;;;10340011;28;21965;-77
2023/12/20 01:43:59;;;;;;;1.70;1.60;;;;;;;;;;10332371;28;20212;-77
2023/12/20 01:49:00;;;;;;;2.70;1.90;;;;;;;;;;10348469;28;20567;-78
2023/12/20 01:54:02;;;;;;;0.82;0.82;;;;;;;;;;10368239;28;20300;-77
2023/12/20 01:59:04;;;;;;;0.50;0.50;;;;;;;;;;10350092;28;20212;-77
2023/12/20 02:04:05;;;;;;;0.52;0.52;;;;;;;;;;10347140;28;20266;-77
2023/12/20 02:09:07;;;;;;;1.98;0.70;;;;;;;;;;10335140;28;20303;-75
2023/12/20 02:14:08;;;;;;;1.33;0.40;;;;;;;;;;10342162;28;20201;-76
2023/12/20 02:19:13;;;;;;;2.25;0.30;;;;;;;;;;10337036;28;20212;-76
2023/12/20 02:24:14;;;;;;;2.75;0.45;;;;;;;;;;10345071;28;20208;-76
2023/12/20 02:29:15;;;;;;;2.63;0.57;;;;;;;;;;10346113;28;20212;-75
2023/12/20 02:34:16;;;;;;;1.67;0.40;;;;;;;;;;10348826;28;20207;-75
2023/12/20 02:39:18;;;;;;;1.77;0.50;;;;;;;;;;10336991;28;20208;-74
2023/12/20 02:44:19;;;;;;;4.32;0.52;;;;;;;;;;10341454;28;20697;-74
2023/12/20 02:49:20;;;;;;;8.45;0.70;;;;;;;;;;10335269;28;20214;-75
2023/12/20 02:54:21;;;;;;;3.63;0.50;;;;;;;;;;10336047;28;20212;-74
2023/12/20 02:59:22;;;;;;;2.97;0.50;;;;;;;;;;10339815;28;20203;-76
2023/12/20 03:04:23;;;;;;;2.95;0.75;;;;;;;;;;10332930;28;20765;-74
2023/12/20 03:09:24;;;;;;;2.85;0.93;;;;;;;;;;10339377;28;20681;-75
2023/12/20 03:14:25;;;;;;;1.20;0.90;;;;;;;;;;10340410;28;20215;-76
2023/12/20 03:19:26;;;;;;;4.50;0.50;;;;;;;;;;10339867;28;20270;-75
2023/12/20 03:24:27;;;;;;;5.15;0.73;;;;;;;;;;10326917;28;20250;-74
2023/12/20 03:29:28;;;;;;;2.83;0.68;;;;;;;;;;10335474;28;20219;-74
2023/12/20 03:34:29;;;;;;;0.57;0.57;;;;;;;;;;10336658;28;20616;-75
2023/12/20 03:39:30;;;;;;;1.95;0.70;;;;;;;;;;10327833;28;20215;-76
2023/12/20 03:44:31;;;;;;;7.32;1.05;;;;;;;;;;10335275;28;20234;-75
2023/12/20 03:49:32;;;;;;;7.13;1.08;;;;;;;;;;10342029;28;20220;-75
2023/12/20 03:54:33;;;;;;;2.58;1.10;;;;;;;;;;10341186;28;20216;-75
2023/12/20 03:59:38;;;;;;;1.88;1.33;;;;;;;;;;10348926;28;20208;-75
2023/12/20 04:04:39;;;;;;;5.50;1.50;;;;;;;;;;10347313;28;20224;-74
2023/12/20 04:09:41;;;;;;;2.20;1.30;;;;;;;;;;10339502;28;20208;-74
2023/12/20 04:14:42;;;;;;;7.03;1.00;;;;;;;;;;10349245;28;20224;-75
2023/12/20 04:19:43;;;;;;;2.33;0.90;;;;;;;;;;10370000;28;20635;-74
2023/12/20 04:24:44;;;;;;;1.80;1.20;;;;;;;;;;10332086;28;20386;-75
2023/12/20 04:29:45;;;;;;;2.28;0.90;;;;;;;;;;10352595;28;20228;-75
2023/12/20 04:34:46;;;;;;;4.22;1.10;;;;;;;;;;10349148;28;20203;-75
2023/12/20 04:39:47;;;;;;;2.50;0.85;;;;;;;;;;10363846;28;20247;-74
2023/12/20 04:44:48;;;;;;;2.50;0.93;;;;;;;;;;10350846;28;20839;-74
2023/12/20 04:49:49;;;;;;;2.03;0.80;;;;;;;;;;10351586;28;20629;-75
2023/12/20 04:54:50;;;;;;;1.67;0.80;;;;;;;;;;10351626;28;20235;-76
2023/12/20 04:59:51;;;;;;;5.10;0.85;;;;;;;;;;10349776;28;20722;-75
2023/12/20 05:04:52;;;;;;;3.50;0.90;;;;;;;;;;10339219;28;20219;-75
2023/12/20 05:09:53;;;;;;;1.25;0.40;;;;;;;;;;10339487;28;20223;-75
2023/12/20 05:14:54;;;;;;;2.80;0.30;;;;;;;;;;10319026;28;20211;-75
2023/12/20 05:19:55;;;;;;;0.90;0.25;;;;;;;;;;10347355;28;20204;-75
2023/12/20 05:24:56;;;;;;;0.55;0.43;;;;;;;;;;10325665;28;20298;-76
2023/12/20 05:29:57;;;;;;;7.60;0.47;;;;;;;;;;10345144;28;20219;-74
2023/12/20 05:34:58;;;;;;;0.90;0.40;;;;;;;;;;10351135;28;20226;-74
2023/12/20 05:39:59;;;;;;;5.38;0.60;;;;;;;;;;10346836;28;20207;-78
2023/12/20 05:45:00;;;;;;;0.98;0.40;;;;;;;;;;10346401;28;20216;-74
2023/12/20 05:50:01;;;;;;;3.72;0.40;;;;;;;;;;10347721;28;20226;-75
2023/12/20 05:55:03;;;;;;;1.67;0.82;;;;;;;;;;10320501;28;20795;-74
2023/12/20 06:00:04;;;;;;;3.53;0.70;;;;;;;;;;10316268;28;20255;-75
2023/12/20 06:05:13;;;;;;;1.40;0.75;;;;;;;;;;10332967;28;20685;-76
2023/12/20 06:10:39;;;;;;;0.65;0.65;;;;;;;;;;10314473;28;21013;-75
2023/12/20 06:15:41;;;;;;;3.88;0.68;;;;;;;;;;10334343;28;20213;-75
2023/12/20 06:20:42;;;;;;;1.75;0.30;;;;;;;;;;10351597;28;20220;-74
2023/12/20 06:25:43;;;;;;;1.15;0.40;;;;;;;;;;10307675;28;20299;-74
2023/12/20 06:30:45;;;;;;;1.80;0.50;;;;;;;;;;10320877;28;21257;-75
2023/12/20 06:35:46;;;;;;;3.80;0.40;;;;;;;;;;10323893;28;20287;-74
2023/12/20 06:40:47;;;;;;;1.80;0.32;;;;;;;;;;10341917;28;20291;-76
2023/12/20 06:45:48;;;;;;;4.30;0.40;;;;;;;;;;10329368;28;20698;-76
2023/12/20 06:50:49;;;;;;;2.92;0.68;;;;;;;;;;10321593;28;20220;-75
2023/12/20 06:55:50;;;;;;;0.47;0.47;;;;;;;;;;10333535;28;20207;-75
2023/12/20 07:00:51;;;;;;;1.00;0.40;;;;;;;;;;10331782;28;20220;-75
2023/12/20 07:05:52;;;;;;;1.40;0.32;;;;;;;;;;10326952;28;20258;-74
2023/12/20 07:10:54;;;;;;;1.05;0.40;;;;;;;;;;10324704;28;20282;-74
2023/12/20 07:15:55;;;;;;;0.65;0.50;;;;;;;;;;10315639;28;20398;-74
2023/12/20 07:20:56;;;;;;;0.57;0.32;;;;;;;;;;10336438;28;20262;-75
2023/12/20 07:25:57;;;;;;;2.85;0.60;;;;;;;;;;10310384;28;20713;-75
2023/12/20 07:30:58;;;;;;;2.70;0.70;;;;;;;;;;10326313;28;20223;-75
2023/12/20 07:36:00;;;;;;;3.25;0.50;;;;;;;;;;10343332;28;20779;-75
2023/12/20 07:41:01;;;;;;;3.92;0.45;;;;;;;;;;10338695;28;20228;-76
2023/12/20 07:46:09;;;;;;;3.10;0.50;;;;;;;;;;10339143;28;20232;-75
2023/12/20 07:51:10;;;;;;;9.63;0.80;;;;;;;;;;10329811;28;20220;-75
2023/12/20 07:56:15;;;;;;;1.33;0.63;;;;;;;;;;10338967;28;20200;-76
2023/12/20 08:01:18;;;;;;;3.33;0.40;;;;;;;;;;10338188;28;20205;-74
2023/12/20 08:06:19;;;;;;;2.38;0.63;;;;;;;;;;10351436;28;20219;-76
2023/12/20 08:11:20;;;;;;;2.33;0.90;;;;;;;;;;10339190;28;20212;-75
2023/12/20 08:16:21;;;;;;;0.73;0.70;;;;;;;;;;10334065;28;20304;-75
2023/12/20 08:21:22;;;;;;;2.25;0.98;;;;;;;;;;10349006;28;20618;-78
2023/12/20 08:26:24;;;;;;;4.10;0.63;;;;;;;;;;10337199;28;20635;-79
2023/12/20 08:31:26;;;;;;;2.30;0.55;;;;;;;;;;10344431;28;20232;-78
2023/12/20 08:36:27;;;;;;;3.15;0.60;;;;;;;;;;10325534;28;20215;-74
2023/12/20 08:41:28;;;;;;;0.57;0.57;;;;;;;;;;10320389;28;20220;-76
2023/12/20 08:46:29;;;;;;;1.95;0.68;;;;;;;;;;10349552;28;20796;-75
2023/12/20 08:51:30;;;;;;;4.90;0.63;;;;;;;;;;10365161;28;20228;-78
2023/12/20 08:56:31;;;;;;;5.28;0.77;;;;;;;;;;10342703;28;20239;-76
2023/12/20 09:01:32;;;;;;;3.15;0.88;;;;;;;;;;10349090;28;20203;-75
2023/12/20 09:06:33;;;;;;;1.60;0.60;;;;;;;;;;10344643;28;20208;-77
2023/12/20 09:11:34;;;;;;;3.83;0.60;;;;;;;;;;10335453;28;20203;-76
2023/12/20 09:16:35;;;;;;;3.97;0.90;;;;;;;;;;10350027;28;20207;-75
2023/12/20 09:21:36;;;;;;;2.92;0.65;;;;;;;;;;10351219;28;20205;-76
2023/12/20 09:26:37;;;;;;;7.32;0.85;;;;;;;;;;10348975;28;20686;-75
2023/12/20 09:31:38;;;;;;;2.92;0.52;;;;;;;;;;10345803;28;20215;-76
2023/12/20 09:36:42;;;;;;;3.78;0.90;;;;;;;;;;10339945;28;20218;-77
2023/12/20 09:41:44;;;;;;;3.00;0.50;;;;;;;;;;10351044;28;20211;-76
2023/12/20 09:46:46;;;;;;;5.85;1.00;;;;;;;;;;10342073;28;20231;-75
2023/12/20 09:51:47;;;;;;;5.50;1.00;;;;;;;;;;10347747;28;20722;-77
2023/12/20 09:56:48;;;;;;;5.70;1.08;;;;;;;;;;10341499;28;20212;-79
2023/12/20 10:01:50;;;;;;;3.85;0.80;;;;;;;;;;10354287;28;20208;-76
2023/12/20 10:06:52;;;;;;;2.70;0.90;;;;;;;;;;10323557;28;20216;-76
2023/12/20 10:11:55;;;;;;;2.63;0.90;;;;;;;;;;10338698;28;20258;-76
2023/12/20 10:17:02;;;;;;;3.65;0.80;;;;;;;;;;10338644;28;20216;-76
2023/12/20 10:22:05;;;;;;;2.38;0.75;;;;;;;;;;10346315;28;20247;-77
2023/12/20 10:27:06;;;;;;;3.95;0.85;;;;;;;;;;10333746;28;20730;-77
2023/12/20 10:32:27;;;;;;;5.00;0.50;;;;;;;;;;10365995;28;20813;-75
2023/12/20 10:37:28;;;;;;;3.58;0.73;;;;;;;;;;10339268;28;21013;-75
2023/12/20 10:42:30;;;;;;;3.30;0.85;;;;;;;;;;10347426;28;20275;-76
2023/12/20 10:47:31;;;;;;;2.55;1.23;;;;;;;;;;10336183;28;20216;-77
2023/12/20 10:52:33;;;;;;;4.35;1.10;;;;;;;;;;10313823;28;20303;-77
2023/12/20 10:57:36;;;;;;;4.72;1.40;;;;;;;;;;10324294;28;20212;-77
2023/12/20 11:02:40;;;;;;;1.25;0.80;;;;;;;;;;10334400;28;20224;-78
2023/12/20 11:07:44;;;;;;;2.88;1.08;;;;;;;;;;10331707;28;20844;-75
2023/12/20 11:12:53;;;;;;;3.40;1.00;;;;;;;;;;10333065;28;20896;-76
2023/12/20 11:17:58;;;;;;;5.40;1.00;;;;;;;;;;10326371;28;20335;-74
2023/12/20 11:22:59;;;;;;;1.00;0.90;;;;;;;;;;10329950;28;20216;-74
2023/12/20 11:28:12;;;;;;;3.25;1.00;;;;;;;;;;10333783;28;20207;-74
2023/12/20 11:33:16;;;;;;;3.05;1.17;;;;;;;;;;10341376;28;20959;-75
2023/12/20 11:38:17;;;;;;;1.42;1.13;;;;;;;;;;10336915;28;20208;-76
2023/12/20 11:43:32;;;;;;;8.48;1.00;;;;;;;;;;10332215;28;20219;-75
2023/12/20 11:48:35;;;;;;;2.70;0.60;;;;;;;;;;10323368;28;20220;-75
2023/12/20 11:53:36;;;;;;;3.60;1.25;;;;;;;;;;10339671;28;20220;-74
2023/12/20 11:58:38;;;;;;;1.70;0.90;;;;;;;;;;10335357;28;20223;-74
2023/12/20 12:03:39;;;;;;;6.68;1.20;;;;;;;;;;10343817;28;20400;-75
2023/12/20 12:08:40;;;;;;;2.45;0.73;;;;;;;;;;10350470;28;20747;-74
2023/12/20 12:13:41;;;;;;;1.50;0.95;;;;;;;;;;10341088;28;20401;-75
2023/12/20 12:18:42;;;;;;;2.08;0.88;;;;;;;;;;10329366;28;20262;-75
2023/12/20 12:23:43;;;;;;;1.77;0.75;;;;;;;;;;10322521;28;20267;-75
2023/12/20 12:28:44;;;;;;;2.17;1.27;;;;;;;;;;10336886;28;20960;-76
2023/12/20 12:33:46;;;;;;;2.65;1.30;;;;;;;;;;10344216;28;20216;-77
2023/12/20 12:38:47;;;;;;;2.40;1.05;;;;;;;;;;10306699;28;20721;-76
2023/12/20 12:43:48;;;;;;;4.32;0.90;;;;;;;;;;10327169;28;20223;-75
2023/12/20 12:48:50;;;;;;;1.98;1.00;;;;;;;;;;10276386;28;20212;-76
2023/12/20 12:53:51;;;;;;;2.13;0.90;;;;;;;;;;10259399;28;20216;-77
2023/12/20 12:58:52;;;;;;;2.63;1.05;;;;;;;;;;10305539;28;20298;-76
2023/12/20 13:03:54;;;;;;;4.93;1.50;;;;;;;;;;10279078;28;20731;-76
2023/12/20 13:08:55;;;;;;;1.65;1.10;;;;;;;;;;10291644;28;20587;-75
2023/12/20 13:13:57;;;;;;;1.38;0.95;;;;;;;;;;10307235;28;20216;-76
2023/12/20 13:18:59;;;;;;;1.15;0.93;;;;;;;;;;10285885;28;20226;-75
2023/12/20 13:24:00;;;;;;;2.53;1.40;;;;;;;;;;10315180;28;20588;-77
2023/12/20 13:29:01;;;;;;;5.00;1.40;;;;;;;;;;10288187;28;20220;-76
2023/12/20 13:34:02;;;;;;;3.50;1.20;;;;;;;;;;10287666;28;20307;-75
2023/12/20 13:39:04;;;;;;;1.15;0.90;;;;;;;;;;10285215;28;22347;-74
2023/12/20 13:44:06;;;;;;;1.75;0.73;;;;;;;;;;10311944;28;20698;-76
2023/12/20 13:49:07;;;;;;;2.35;0.50;;;;;;;;;;10279111;28;20224;-75
2023/12/20 13:54:08;;;;;;;1.75;0.68;;;;;;;;;;10280021;28;21436;-75
2023/12/20 13:59:09;;;;;;;0.50;0.50;;;;;;;;;;10282649;28;20208;-75
2023/12/20 14:04:11;;;;;;;0.40;0.40;;;;;;;;;;10247497;28;20216;-75
2023/12/20 14:09:12;;;;;;;0.47;0.40;;;;;;;;;;10286321;28;20770;-75
2023/12/20 14:14:13;;;;;;;0.85;0.50;;;;;;;;;;10264572;28;20307;-74
2023/12/20 14:19:14;;;;;;;2.85;0.40;;;;;;;;;;10310614;28;20266;-73
2023/12/20 14:24:15;;;;;;;1.50;0.30;;;;;;;;;;10322002;28;20219;-75
2023/12/20 14:29:16;;;;;;;0.47;0.30;;;;;;;;;;10314190;28;20266;-76
2023/12/20 14:34:17;;;;;;;0.20;0.20;;;;;;;;;;10331948;28;20208;-75
2023/12/20 14:39:18;;;;;;;2.03;0.20;;;;;;;;;;10344632;28;20606;-73
2023/12/20 14:44:19;;;;;;;0.20;0.20;;;;;;;;;;10313719;28;20216;-75
2023/12/20 14:49:20;;;;;;;2.30;0.30;;;;;;;;;;10323091;28;20248;-73
2023/12/20 14:54:21;;;;;;;5.00;0.30;;;;;;;;;;10296298;28;20706;-76
2023/12/20 14:59:22;;;;;;;0.80;0.30;;;;;;;;;;10294283;28;20227;-73
2023/12/20 15:04:28;;;;;;;1.55;0.20;;;;;;;;;;10309097;28;20243;-75
2023/12/20 15:09:29;;;;;;;2.38;0.38;;;;;;;;;;10322948;28;20205;-75
2023/12/20 15:14:30;;;;;;;1.85;0.40;;;;;;;;;;10328199;28;20209;-73
2023/12/20 15:19:32;;;;;;;1.17;0.30;;;;;;;;;;10341127;28;20204;-74
2023/12/20 15:24:38;;;;;;;3.47;0.50;;;;;;;;;;10342984;28;20694;-74
2023/12/20 15:29:39;;;;;;;0.50;0.50;;;;;;;;;;10323547;28;20242;-75
2023/12/20 15:34:40;;;;;;;1.75;0.20;;;;;;;;;;10334388;28;20223;-73
2023/12/20 15:39:44;;;;;;;2.42;0.20;;;;;;;;;;10330074;28;20200;-76
2023/12/20 15:44:45;;;;;;;2.17;0.30;;;;;;;;;;10332344;28;20224;-74
2023/12/20 15:49:48;;;;;;;0.20;0.20;;;;;;;;;;10333840;28;20208;-74
2023/12/20 15:54:50;;;;;;;0.40;0.40;;;;;;;;;;10331041;28;20829;-72
2023/12/20 15:59:51;;;;;;;0.40;0.40;;;;;;;;;;10329693;28;20212;-72
2023/12/20 16:04:52;;;;;;;0.90;0.60;;;;;;;;;;10318836;28;20212;-71
2023/12/20 16:09:53;;;;;;;0.30;0.30;;;;;;;;;;10326758;28;20213;-72
2023/12/20 16:14:54;;;;;;;0.40;0.40;;;;;;;;;;10330777;28;20219;-72
2023/12/20 16:19:55;;;;;;;0.30;0.30;;;;;;;;;;10331421;28;20359;-74
2023/12/20 16:24:56;;;;;;;2.72;0.47;;;;;;;;;;10323644;28;20560;-75
2023/12/20 16:29:57;;;;;;;0.77;0.50;;;;;;;;;;10322272;28;20219;-75
2023/12/20 16:34:59;;;;;;;0.93;0.93;;;;;;;;;;10341744;28;20219;-74
2023/12/20 16:40:00;;;;;;;4.47;2.53;;;;;;;;;;10343078;28;20208;-75
2023/12/20 16:45:01;;;;;;;0.90;0.85;;;;;;;;;;10331244;28;20231;-74
2023/12/20 16:50:05;;;;;;;1.55;0.50;;;;;;;;;;10324035;28;20311;-73
2023/12/20 16:55:08;;;;;;;1.33;0.40;;;;;;;;;;10325598;28;20208;-73
2023/12/20 17:00:11;;;;;;;3.20;0.40;;;;;;;;;;10331472;28;20212;-72
2023/12/20 17:05:12;;;;;;;0.40;0.40;;;;;;;;;;10337460;28;20217;-73
2023/12/20 17:10:13;;;;;;;3.47;0.40;;;;;;;;;;10323369;28;20270;-76
2023/12/20 17:15:14;;;;;;;0.52;0.28;;;;;;;;;;10334631;28;20299;-74
2023/12/20 17:20:15;;;;;;;3.53;0.50;;;;;;;;;;10338524;28;20257;-75
2023/12/20 17:25:16;;;;;;;2.70;0.50;;;;;;;;;;10332442;28;20244;-74
2023/12/20 17:30:17;;;;;;;2.95;0.35;;;;;;;;;;10327377;28;20216;-73
2023/12/20 17:35:20;;;;;;;2.72;0.38;;;;;;;;;;10334184;28;20256;-73
2023/12/20 17:40:21;;;;;;;1.00;0.65;;;;;;;;;;10326504;28;20313;-76
2023/12/20 17:45:22;;;;;;;0.77;0.70;;;;;;;;;;10328760;28;20219;-73
2023/12/20 17:50:23;;;;;;;2.95;0.30;;;;;;;;;;10333522;28;20725;-75
2023/12/20 17:55:24;;;;;;;0.47;0.47;;;;;;;;;;10331118;28;20208;-74
2023/12/20 18:00:27;;;;;;;3.17;0.43;;;;;;;;;;10322967;28;20223;-75
2023/12/20 18:05:28;;;;;;;2.08;0.30;;;;;;;;;;10337425;28;20864;-77
2023/12/20 18:10:29;;;;;;;1.70;0.65;;;;;;;;;;10321218;28;20215;-75
2023/12/20 18:15:30;;;;;;;1.83;0.28;;;;;;;;;;10322825;28;20207;-74
2023/12/20 18:20:31;;;;;;;0.20;0.20;;;;;;;;;;10326108;28;20207;-75
2023/12/20 18:25:32;;;;;;;1.73;0.50;;;;;;;;;;10325263;28;20235;-76
2023/12/20 18:30:33;;;;;;;2.38;0.30;;;;;;;;;;10339215;28;20721;-76
2023/12/20 18:35:36;;;;;;;1.40;0.38;;;;;;;;;;10320992;28;20197;-72
2023/12/20 18:40:37;;;;;;;2.28;0.40;;;;;;;;;;10324837;28;20212;-75
2023/12/20 18:45:38;;;;;;;2.95;0.40;;;;;;;;;;10321250;28;20702;-75
2023/12/20 18:50:39;;;;;;;3.10;0.50;;;;;;;;;;10320945;28;20226;-76
2023/12/20 18:55:40;;;;;;;0.38;0.38;;;;;;;;;;10324204;28;20214;-75
2023/12/20 19:00:41;;;;;;;0.82;0.63;;;;;;;;;;10307887;28;20246;-75
2023/12/20 19:05:42;;;;;;;0.40;0.40;;;;;;;;;;10322692;28;20227;-75
2023/12/20 19:10:43;;;;;;;2.15;0.40;;;;;;;;;;10319649;28;20220;-73
2023/12/20 19:15:44;;;;;;;1.27;0.40;;;;;;;;;;10300159;28;20208;-76
2023/12/20 19:20:45;;;;;;;1.63;0.65;;;;;;;;;;10325409;28;20223;-76
2023/12/20 19:25:47;;;;;;;1.45;0.45;;;;;;;;;;10329761;28;20942;-76
2023/12/20 19:30:48;;;;;;;1.77;0.80;;;;;;;;;;10334944;28;20216;-78
2023/12/20 19:35:49;;;;;;;1.13;0.43;;;;;;;;;;10335493;28;20199;-77
2023/12/20 19:40:50;;;;;;;1.58;0.70;;;;;;;;;;10315587;28;20718;-76
2023/12/20 19:45:51;;;;;;;4.50;0.70;;;;;;;;;;10314607;28;20259;-77
2023/12/20 19:50:52;;;;;;;2.53;0.60;;;;;;;;;;10331476;28;20220;-77
2023/12/20 19:55:53;;;;;;;2.40;0.45;;;;;;;;;;10330996;28;20213;-76
2023/12/20 20:00:54;;;;;;;2.35;0.60;;;;;;;;;;10332812;28;20286;-78
2023/12/20 20:05:55;;;;;;;1.30;0.40;;;;;;;;;;10335027;28;20239;-76
2023/12/20 20:10:56;;;;;;;1.17;0.60;;;;;;;;;;10329683;28;20235;-76
2023/12/20 20:15:58;;;;;;;0.95;0.50;;;;;;;;;;10329169;28;20336;-78
2023/12/20 20:20:59;;;;;;;1.30;0.60;;;;;;;;;;10330907;28;20589;-77
2023/12/20 20:26:00;;;;;;;2.10;0.60;;;;;;;;;;10320827;28;20212;-76
2023/12/20 20:31:01;;;;;;;0.65;0.60;;;;;;;;;;10348371;28;20689;-77
2023/12/20 20:36:03;;;;;;;1.52;0.60;;;;;;;;;;10336237;28;20640;-77
2023/12/20 20:41:05;;;;;;;0.73;0.73;;;;;;;;;;10311481;28;20213;-76
2023/12/20 20:46:06;;;;;;;1.42;0.60;;;;;;;;;;10338294;28;20230;-78
2023/12/20 20:51:07;;;;;;;0.45;0.45;;;;;;;;;;10319527;28;20766;-77
2023/12/20 20:56:08;;;;;;;0.93;0.93;;;;;;;;;;10334220;28;20243;-76
2023/12/20 21:01:09;;;;;;;2.80;0.80;;;;;;;;;;10331888;28;20231;-79
2023/12/20 21:06:11;;;;;;;1.52;0.60;;;;;;;;;;10336903;28;20215;-79
2023/12/20 21:11:14;;;;;;;0.68;0.68;;;;;;;;;;10336917;28;20640;-78
2023/12/20 21:16:15;;;;;;;1.48;0.57;;;;;;;;;;10340883;28;20212;-79
2023/12/20 21:21:16;;;;;;;1.55;0.68;;;;;;;;;;10325187;28;20353;-77
2023/12/20 21:26:17;;;;;;;0.50;0.50;;;;;;;;;;10330330;28;20343;-77
2023/12/20 21:31:18;;;;;;;1.05;0.40;;;;;;;;;;10343917;28;20220;-80
2023/12/20 21:36:19;;;;;;;0.40;0.40;;;;;;;;;;10325184;28;20829;-78
2023/12/20 21:41:20;;;;;;;0.25;0.25;;;;;;;;;;10337439;28;20207;-79
2023/12/20 21:46:21;;;;;;;0.40;0.40;;;;;;;;;;10327178;28;20231;-78
2023/12/20 21:51:22;;;;;;;0.40;0.40;;;;;;;;;;10330410;28;20232;-78
2023/12/20 21:56:23;;;;;;;0.50;0.50;;;;;;;;;;10331259;28;20219;-76
2023/12/20 22:01:25;;;;;;;0.40;0.40;;;;;;;;;;10338047;28;20217;-77
2023/12/20 22:06:26;;;;;;;0.40;0.40;;;;;;;;;;10335193;28;20216;-77
2023/12/20 22:11:27;;;;;;;0.73;0.60;;;;;;;;;;10310620;28;20250;-78
2023/12/20 22:16:28;;;;;;;0.93;0.60;;;;;;;;;;10334038;28;20200;-78
2023/12/20 22:21:29;;;;;;;0.60;0.60;;;;;;;;;;10350878;28;20209;-78
2023/12/20 22:26:30;;;;;;;1.75;0.70;;;;;;;;;;10337009;28;20710;-78
2023/12/20 22:31:31;;;;;;;7.72;0.88;;;;;;;;;;10335174;28;20296;-77
2023/12/20 22:36:32;;;;;;;0.68;0.68;;;;;;;;;;10328994;28;20303;-77
2023/12/20 22:41:33;;;;;;;2.70;0.60;;;;;;;;;;10335307;28;20844;-77
2023/12/20 22:46:35;;;;;;;1.70;0.70;;;;;;;;;;10351076;28;20770;-78
2023/12/20 22:51:36;;;;;;;0.60;0.60;;;;;;;;;;10339751;28;20232;-77
2023/12/20 22:56:37;;;;;;;0.50;0.50;;;;;;;;;;10337166;28;20204;-78
2023/12/20 23:01:38;;;;;;;2.05;0.80;;;;;;;;;;10323449;28;20690;-79
2023/12/20 23:06:39;;;;;;;0.40;0.40;;;;;;;;;;10332161;28;20216;-77
2023/12/20 23:11:40;;;;;;;0.52;0.52;;;;;;;;;;10329162;28;20221;-79
2023/12/20 23:16:41;;;;;;;0.45;0.45;;;;;;;;;;10321625;28;20226;-77
2023/12/20 23:21:42;;;;;;;0.30;0.30;;;;;;;;;;10336959;28;20235;-76
2023/12/20 23:26:43;;;;;;;0.35;0.20;;;;;;;;;;10341139;28;20235;-78
2023/12/20 23:31:44;;;;;;;0.20;0.20;;;;;;;;;;10331605;28;20252;-77
2023/12/20 23:36:45;;;;;;;0.10;0.10;;;;;;;;;;10313510;28;20671;-78
2023/12/20 23:41:46;;;;;;;0.20;0.20;;;;;;;;;;10336192;28;20222;-76
2023/12/20 23:46:47;;;;;;;0.30;0.30;;;;;;;;;;10336872;28;20229;-76
2023/12/20 23:51:48;;;;;;;0.38;0.28;;;;;;;;;;10336159;28;20307;-77
2023/12/20 23:56:49;;;;;;;0.20;0.20;;;;;;;;;;10333457;28;20212;-77
